Time;durP1;ratioP1;P1;durP2;ratioP2;P2;SDS_P1;SDS_P2;PMS_P1;PMS_P2;Temp;Humidity;BMP_temperature;BMP_pressure;BME280_temperature;BME280_humidity;BME280_pressure;Samples;Min_cycle;Max_cycle;Signal;HPM_P1;HPM_P2
2023/04/29 00:01:11;;;;;;;70.55;33.72;;;11.60;99.90;;;;;;5099295;28;20046;-72
2023/04/29 00:03:36;;;;;;;77.03;36.25;;;11.70;99.90;;;;;;5099343;28;20044;-72
2023/04/29 00:06:02;;;;;;;66.18;34.42;;;11.80;99.90;;;;;;5099200;28;20336;-72
2023/04/29 00:08:28;;;;;;;87.90;38.33;;;11.70;99.90;;;;;;5099069;28;20392;-72
2023/04/29 00:10:54;;;;;;;89.15;38.53;;;11.70;99.90;;;;;;5098766;28;20111;-72
2023/04/29 00:13:20;;;;;;;65.95;34.45;;;11.50;99.90;;;;;;5099106;28;20076;-72
2023/04/29 00:15:45;;;;;;;70.63;34.88;;;11.40;99.90;;;;;;5098721;28;20379;-72
2023/04/29 00:18:12;;;;;;;85.55;38.40;;;11.50;99.90;;;;;;5098679;28;20040;-72
2023/04/29 00:20:38;;;;;;;78.75;36.92;;;11.40;99.90;;;;;;5098332;28;20036;-72
2023/04/29 00:23:05;;;;;;;63.65;33.28;;;11.10;99.90;;;;;;5098846;28;20115;-72
2023/04/29 00:25:30;;;;;;;75.93;34.58;;;11.20;99.90;;;;;;5098991;28;20485;-72
2023/04/29 00:28:00;;;;;;;72.90;35.20;;;11.20;99.90;;;;;;5097087;28;20040;-72
2023/04/29 00:30:27;;;;;;;69.70;34.58;;;11.30;99.90;;;;;;5098478;28;20087;-72
2023/04/29 00:32:53;;;;;;;68.45;32.42;;;11.30;99.90;;;;;;5098776;28;20047;-71
2023/04/29 00:35:19;;;;;;;66.82;30.33;;;11.30;99.90;;;;;;5098327;28;20494;-72
2023/04/29 00:37:45;;;;;;;65.35;32.90;;;11.20;99.90;;;;;;5098588;28;20039;-72
2023/04/29 00:40:13;;;;;;;61.17;30.52;;;11.30;99.90;;;;;;5098565;28;20336;-72
2023/04/29 00:42:39;;;;;;;67.20;31.55;;;11.20;99.90;;;;;;5098229;28;20436;-72
2023/04/29 00:45:06;;;;;;;66.72;30.77;;;11.20;99.90;;;;;;5098409;28;20044;-72
2023/04/29 00:47:32;;;;;;;58.33;28.73;;;11.30;99.90;;;;;;5098032;28;20376;-72
2023/04/29 00:49:57;;;;;;;63.78;29.27;;;11.10;99.90;;;;;;5097634;28;20040;-72
2023/04/29 00:52:23;;;;;;;79.32;33.58;;;11.10;99.90;;;;;;5098363;28;20036;-72
2023/04/29 00:54:51;;;;;;;70.28;31.27;;;11.10;99.90;;;;;;5098269;28;20085;-72
2023/04/29 00:57:18;;;;;;;66.47;29.75;;;11.20;99.90;;;;;;5097844;28;20482;-72
2023/04/29 00:59:44;;;;;;;74.82;32.42;;;11.20;99.90;;;;;;5098133;28;20066;-72
2023/04/29 01:02:10;;;;;;;78.57;33.13;;;11.20;99.90;;;;;;5098136;28;20046;-72
2023/04/29 01:04:36;;;;;;;64.03;29.23;;;11.30;99.90;;;;;;5098066;28;20101;-72
2023/04/29 01:07:21;;;;;;;73.45;30.00;;;11.20;99.90;;;;;;5097900;28;20040;-72
2023/04/29 01:10:02;;;;;;;55.15;26.17;;;11.10;99.90;;;;;;5097993;28;20047;-72
2023/04/29 01:13:00;;;;;;;68.03;28.50;;;11.00;99.90;;;;;;5097958;28;20371;-72
2023/04/29 01:15:37;;;;;;;44.60;23.30;;;11.10;99.90;;;;;;5098086;28;20380;-72
2023/04/29 01:18:19;;;;;;;53.08;24.33;;;11.20;99.90;;;;;;5097859;28;20040;-72
2023/04/29 01:20:45;;;;;;;43.83;23.60;;;11.30;99.90;;;;;;5096350;28;20036;-72
2023/04/29 01:23:11;;;;;;;81.95;30.00;;;11.30;99.90;;;;;;5097764;28;20039;-72
2023/04/29 01:25:38;;;;;;;49.67;23.58;;;11.30;99.90;;;;;;5097432;28;20379;-72
2023/04/29 01:28:06;;;;;;;51.40;24.60;;;11.30;99.90;;;;;;5097292;28;20085;-72
2023/04/29 01:30:56;;;;;;;52.72;24.98;;;11.20;99.90;;;;;;5097315;28;20084;-71
2023/04/29 01:33:34;;;;;;;46.97;23.52;;;11.10;99.90;;;;;;5097577;28;20126;-72
2023/04/29 01:36:28;;;;;;;47.42;24.92;;;11.20;99.90;;;;;;5096245;28;20044;-72
2023/04/29 01:39:15;;;;;;;48.47;23.75;;;11.20;99.90;;;;;;5096557;28;20047;-72
2023/04/29 01:42:04;;;;;;;63.65;27.27;;;11.20;99.90;;;;;;5097474;28;20031;-72
2023/04/29 01:44:32;;;;;;;63.72;28.08;;;11.20;99.90;;;;;;5096538;28;20044;-72
2023/04/29 01:46:59;;;;;;;64.35;28.10;;;11.20;99.90;;;;;;5097223;28;20047;-72
2023/04/29 01:49:27;;;;;;;78.07;31.08;;;11.20;99.90;;;;;;5096924;28;20109;-72
2023/04/29 01:51:53;;;;;;;68.22;31.58;;;11.20;99.90;;;;;;5097251;28;20046;-72
2023/04/29 01:54:19;;;;;;;65.50;29.98;;;11.10;99.90;;;;;;5096916;28;20400;-72
2023/04/29 01:56:45;;;;;;;70.22;30.38;;;11.10;99.90;;;;;;5096838;28;20509;-72
2023/04/29 01:59:11;;;;;;;64.25;29.77;;;11.10;99.90;;;;;;5097096;28;20040;-72
2023/04/29 02:01:37;;;;;;;66.25;30.95;;;11.10;99.90;;;;;;5097117;28;20036;-72
2023/04/29 02:04:03;;;;;;;67.28;29.00;;;11.10;99.90;;;;;;5097045;28;20040;-72
2023/04/29 02:06:30;;;;;;;50.67;25.45;;;11.10;99.90;;;;;;5096996;28;20059;-72
2023/04/29 02:08:57;;;;;;;50.78;25.17;;;10.90;99.90;;;;;;5096795;28;20097;-72
2023/04/29 02:11:23;;;;;;;45.40;24.30;;;10.90;99.90;;;;;;5097023;28;20042;-72
2023/04/29 02:13:49;;;;;;;59.13;26.40;;;10.80;99.90;;;;;;5096985;28;20426;-72
2023/04/29 02:16:15;;;;;;;63.28;27.88;;;10.80;99.90;;;;;;5096715;28;20036;-72
2023/04/29 02:18:41;;;;;;;58.30;25.80;;;10.90;99.90;;;;;;5096668;28;20425;-72
2023/04/29 02:21:07;;;;;;;50.15;24.50;;;10.90;99.90;;;;;;5096523;28;20068;-72
2023/04/29 02:23:34;;;;;;;50.78;25.08;;;11.00;99.90;;;;;;5096622;28;20366;-72
2023/04/29 02:26:00;;;;;;;51.65;24.88;;;10.80;99.90;;;;;;5096806;28;20063;-72
2023/04/29 02:28:26;;;;;;;58.53;26.58;;;10.60;99.90;;;;;;5096777;28;20044;-72
2023/04/29 02:30:52;;;;;;;57.85;27.08;;;10.60;99.90;;;;;;5096465;28;20063;-71
2023/04/29 02:33:17;;;;;;;49.70;22.65;;;10.50;99.90;;;;;;5095811;28;20096;-72
2023/04/29 02:35:43;;;;;;;59.95;26.85;;;10.60;99.90;;;;;;5096751;28;20153;-71
2023/04/29 02:38:10;;;;;;;53.60;23.25;;;10.60;99.90;;;;;;5096753;28;20063;-72
2023/04/29 02:40:46;;;;;;;62.25;25.65;;;10.60;99.90;;;;;;5096430;28;20040;-72
2023/04/29 02:43:12;;;;;;;60.72;26.05;;;10.60;99.90;;;;;;5096776;28;20067;-72
2023/04/29 02:45:38;;;;;;;60.58;26.85;;;10.60;99.90;;;;;;5096678;28;20321;-72
2023/04/29 02:48:07;;;;;;;75.20;27.08;;;10.60;99.90;;;;;;5095245;28;20075;-72
2023/04/29 02:50:33;;;;;;;59.70;25.40;;;10.70;99.90;;;;;;5097341;28;20036;-72
2023/04/29 02:52:58;;;;;;;64.85;27.60;;;10.70;99.90;;;;;;5100649;28;20043;-72
2023/04/29 02:55:25;;;;;;;63.72;27.55;;;10.60;99.90;;;;;;5100594;28;20032;-72
2023/04/29 02:57:51;;;;;;;61.55;26.50;;;10.60;99.90;;;;;;5100522;28;20050;-72
2023/04/29 03:00:17;;;;;;;58.70;28.30;;;10.60;99.90;;;;;;5100505;28;20051;-72
2023/04/29 03:02:43;;;;;;;54.58;26.20;;;10.70;99.90;;;;;;5100412;28;20044;-72
2023/04/29 03:05:09;;;;;;;71.97;28.75;;;10.70;99.90;;;;;;5100047;28;20036;-72
2023/04/29 03:07:34;;;;;;;59.38;27.08;;;10.80;99.90;;;;;;5099965;28;20043;-72
2023/04/29 03:10:00;;;;;;;56.28;25.27;;;10.60;99.90;;;;;;5100294;28;20033;-72
2023/04/29 03:12:26;;;;;;;46.60;23.02;;;10.70;99.90;;;;;;5098904;28;20048;-72
2023/04/29 03:14:51;;;;;;;64.45;26.92;;;10.70;99.90;;;;;;5100201;28;20142;-72
2023/04/29 03:17:17;;;;;;;62.47;28.38;;;10.70;99.90;;;;;;5099796;28;20438;-72
2023/04/29 03:19:43;;;;;;;57.30;26.17;;;10.60;99.90;;;;;;5099735;28;20048;-72
2023/04/29 03:22:10;;;;;;;51.50;26.33;;;10.60;99.90;;;;;;5100097;28;20385;-72
2023/04/29 03:24:37;;;;;;;51.50;24.63;;;10.60;99.90;;;;;;5099816;28;20109;-72
2023/04/29 03:27:03;;;;;;;52.95;24.40;;;10.60;99.90;;;;;;5099914;28;20336;-72
2023/04/29 03:29:30;;;;;;;51.47;24.25;;;10.60;99.90;;;;;;5099971;28;20036;-72
2023/04/29 03:31:56;;;;;;;51.10;22.42;;;10.80;99.90;;;;;;5099471;28;20048;-72
2023/04/29 03:34:22;;;;;;;51.25;23.33;;;10.70;99.90;;;;;;5099888;28;20036;-72
2023/04/29 03:36:47;;;;;;;58.75;25.25;;;10.60;99.90;;;;;;5099818;28;20171;-72
2023/04/29 03:39:13;;;;;;;57.85;24.60;;;10.60;99.90;;;;;;5099782;28;20066;-72
2023/04/29 03:41:39;;;;;;;53.42;24.20;;;10.60;99.90;;;;;;5099695;28;20333;-72
2023/04/29 03:44:05;;;;;;;59.63;25.23;;;10.60;99.90;;;;;;5099715;28;20080;-72
2023/04/29 03:46:30;;;;;;;55.60;25.02;;;10.60;99.90;;;;;;5099545;28;20325;-72
2023/04/29 03:48:56;;;;;;;45.67;21.15;;;10.60;99.90;;;;;;5099571;28;20078;-72
2023/04/29 03:51:23;;;;;;;48.22;22.70;;;10.70;99.90;;;;;;5099167;28;20032;-72
2023/04/29 03:53:49;;;;;;;47.25;22.95;;;10.80;99.90;;;;;;5099483;28;20072;-72
2023/04/29 03:56:15;;;;;;;41.28;21.80;;;10.70;99.90;;;;;;5099153;28;20078;-72
2023/04/29 03:58:41;;;;;;;59.33;25.35;;;10.90;99.90;;;;;;5099424;28;20040;-72
2023/04/29 04:01:06;;;;;;;51.40;22.25;;;11.00;99.90;;;;;;5099033;28;20484;-72
2023/04/29 04:03:32;;;;;;;47.60;22.33;;;10.90;99.90;;;;;;5098010;28;20168;-72
2023/04/29 04:05:58;;;;;;;51.20;22.73;;;11.00;99.90;;;;;;5099225;28;20093;-72
2023/04/29 04:08:24;;;;;;;51.78;22.58;;;11.00;99.90;;;;;;5098887;28;20090;-72
2023/04/29 04:10:49;;;;;;;53.17;23.08;;;11.10;99.90;;;;;;5099150;28;20028;-72
2023/04/29 04:13:15;;;;;;;59.28;23.45;;;11.00;99.90;;;;;;5098170;28;20326;-72
2023/04/29 04:15:41;;;;;;;47.53;21.90;;;10.90;99.90;;;;;;5099079;28;20046;-72
2023/04/29 04:18:07;;;;;;;46.13;21.15;;;10.90;99.90;;;;;;5099058;28;20072;-72
2023/04/29 04:20:36;;;;;;;52.17;21.58;;;11.00;99.90;;;;;;5098545;28;20333;-72
2023/04/29 04:23:01;;;;;;;49.65;20.60;;;11.00;99.90;;;;;;5098907;28;20040;-72
2023/04/29 04:25:28;;;;;;;43.63;19.88;;;11.00;99.90;;;;;;5098826;28;20360;-72
2023/04/29 04:27:53;;;;;;;35.78;18.58;;;10.90;99.90;;;;;;5098451;28;20048;-72
2023/04/29 04:30:19;;;;;;;46.42;20.73;;;10.90;99.90;;;;;;5098761;28;20032;-72
2023/04/29 04:32:45;;;;;;;42.50;17.90;;;11.00;99.90;;;;;;5098198;28;20059;-72
2023/04/29 04:35:11;;;;;;;44.90;18.35;;;10.90;99.90;;;;;;5098606;28;20342;-72
2023/04/29 04:37:37;;;;;;;36.40;16.83;;;11.00;99.90;;;;;;5098308;28;20051;-72
2023/04/29 04:40:03;;;;;;;40.42;18.48;;;11.00;99.90;;;;;;5098564;28;20040;-72
2023/04/29 04:42:29;;;;;;;36.85;16.33;;;11.00;99.90;;;;;;5098472;28;20036;-72
2023/04/29 04:44:56;;;;;;;38.50;18.70;;;11.10;99.90;;;;;;5098237;28;20040;-72
2023/04/29 04:47:21;;;;;;;34.00;17.13;;;11.00;99.90;;;;;;5098367;28;20372;-72
2023/04/29 04:49:48;;;;;;;28.40;15.32;;;11.00;99.90;;;;;;5098016;28;20035;-72
2023/04/29 04:52:14;;;;;;;40.83;18.92;;;11.00;99.90;;;;;;5098055;28;20439;-72
2023/04/29 04:54:40;;;;;;;42.58;18.75;;;11.00;99.90;;;;;;5098027;28;20079;-72
2023/04/29 04:57:06;;;;;;;34.30;17.85;;;11.10;99.90;;;;;;5097925;28;20075;-72
2023/04/29 04:59:32;;;;;;;37.35;17.80;;;11.00;99.90;;;;;;5097155;28;20044;-72
2023/04/29 05:01:58;;;;;;;41.60;18.08;;;11.00;99.90;;;;;;5098164;28;20040;-72
2023/04/29 05:04:23;;;;;;;40.53;17.38;;;10.90;99.90;;;;;;5098095;28;20044;-72
2023/04/29 05:06:49;;;;;;;32.65;14.98;;;10.70;99.90;;;;;;5098023;28;20044;-72
2023/04/29 05:09:15;;;;;;;37.28;15.98;;;10.60;99.90;;;;;;5097997;28;20036;-72
2023/04/29 05:11:41;;;;;;;39.08;16.52;;;10.80;99.90;;;;;;5097698;28;20055;-72
2023/04/29 05:14:07;;;;;;;41.97;17.83;;;10.70;99.90;;;;;;5097711;28;20115;-72
2023/04/29 05:16:32;;;;;;;36.50;17.38;;;10.70;99.90;;;;;;5096916;28;20166;-72
2023/04/29 05:18:58;;;;;;;50.03;19.10;;;10.70;99.90;;;;;;5097828;28;20064;-72
2023/04/29 05:21:24;;;;;;;38.83;17.85;;;10.80;99.90;;;;;;5097360;28;20040;-72
2023/04/29 05:23:49;;;;;;;38.95;18.17;;;10.80;99.90;;;;;;5097753;28;20040;-72
2023/04/29 05:26:15;;;;;;;35.13;16.13;;;10.80;99.90;;;;;;5097438;28;20127;-72
2023/04/29 05:28:41;;;;;;;34.58;17.45;;;10.80;99.90;;;;;;5097626;28;20328;-72
2023/04/29 05:31:06;;;;;;;29.58;15.13;;;10.90;99.90;;;;;;5097583;28;20429;-72
2023/04/29 05:33:32;;;;;;;30.70;14.60;;;10.90;99.90;;;;;;5097059;28;20052;-72
2023/04/29 05:35:58;;;;;;;31.15;14.95;;;11.00;99.90;;;;;;5097558;28;20048;-72
2023/04/29 05:38:27;;;;;;;36.88;16.52;;;11.10;99.90;;;;;;5097497;28;20410;-72
2023/04/29 05:40:54;;;;;;;37.70;15.60;;;11.20;99.90;;;;;;5097479;28;20044;-72
2023/04/29 05:43:20;;;;;;;32.75;15.60;;;11.00;99.90;;;;;;5097389;28;20036;-72
2023/04/29 05:45:46;;;;;;;31.50;16.08;;;11.00;99.90;;;;;;5096378;28;20040;-72
2023/04/29 05:48:11;;;;;;;36.78;16.42;;;11.00;99.90;;;;;;5095994;28;20071;-72
2023/04/29 05:50:37;;;;;;;32.83;15.38;;;11.00;99.90;;;;;;5096917;28;20035;-72
2023/04/29 05:53:03;;;;;;;27.63;13.60;;;11.10;99.90;;;;;;5097193;28;20035;-72
2023/04/29 05:55:29;;;;;;;33.92;15.77;;;11.10;99.90;;;;;;5097245;28;20044;-72
2023/04/29 05:57:55;;;;;;;33.63;16.02;;;11.10;99.90;;;;;;5097205;28;20052;-72
2023/04/29 06:00:21;;;;;;;31.08;15.65;;;11.00;99.90;;;;;;5097199;28;20040;-72
2023/04/29 06:02:47;;;;;;;30.00;14.95;;;11.00;99.90;;;;;;5097157;28;20036;-72
2023/04/29 06:05:14;;;;;;;28.40;14.77;;;11.00;99.90;;;;;;5096785;28;20425;-72
2023/04/29 06:07:43;;;;;;;24.85;14.48;;;11.20;99.90;;;;;;5095689;28;20044;-72
2023/04/29 06:10:09;;;;;;;33.58;15.38;;;11.30;99.90;;;;;;5096716;28;20445;-72
2023/04/29 06:12:35;;;;;;;32.13;15.15;;;11.40;99.90;;;;;;5096999;28;20039;-72
2023/04/29 06:15:01;;;;;;;31.67;14.50;;;11.50;99.90;;;;;;5096940;28;20324;-72
2023/04/29 06:17:29;;;;;;;32.33;15.40;;;11.50;99.90;;;;;;5096905;28;20437;-72
2023/04/29 06:19:55;;;;;;;29.45;13.93;;;11.60;99.90;;;;;;5096494;28;20072;-72
2023/04/29 06:22:21;;;;;;;27.55;14.77;;;11.60;99.90;;;;;;5096942;28;20378;-72
2023/04/29 06:24:48;;;;;;;25.30;13.25;;;11.70;99.90;;;;;;5097306;28;20348;-72
2023/04/29 06:27:15;;;;;;;27.10;13.25;;;11.60;99.90;;;;;;5102930;28;20047;-72
2023/04/29 06:29:41;;;;;;;21.25;12.38;;;11.50;99.90;;;;;;5103633;28;20043;-72
2023/04/29 06:32:06;;;;;;;24.90;12.98;;;11.60;99.90;;;;;;5103564;28;20047;-72
2023/04/29 06:34:32;;;;;;;24.25;12.05;;;11.80;99.90;;;;;;5103126;28;20060;-72
2023/04/29 06:36:58;;;;;;;24.90;11.98;;;11.90;99.90;;;;;;5103139;28;20032;-72
2023/04/29 06:39:24;;;;;;;23.52;10.95;;;11.90;99.90;;;;;;5103518;28;20040;-72
2023/04/29 06:41:51;;;;;;;17.30;10.40;;;11.80;99.90;;;;;;5103216;28;20044;-72
2023/04/29 06:44:18;;;;;;;22.55;11.48;;;11.60;99.90;;;;;;5103448;28;20136;-72
2023/04/29 06:46:43;;;;;;;21.25;10.43;;;11.80;99.90;;;;;;5103398;28;20137;-72
2023/04/29 06:49:09;;;;;;;22.60;11.60;;;11.70;99.90;;;;;;5103406;28;20142;-71
2023/04/29 06:51:38;;;;;;;26.63;11.98;;;11.80;99.90;;;;;;5102970;28;20036;-71
2023/04/29 06:54:04;;;;;;;23.08;10.57;;;11.90;99.90;;;;;;5119345;28;20093;-72
2023/04/29 06:56:30;;;;;;;19.40;9.73;;;12.00;99.90;;;;;;5103361;28;20036;-71
2023/04/29 06:58:55;;;;;;;19.13;10.23;;;12.10;99.90;;;;;;5103294;28;20047;-72
2023/04/29 07:01:21;;;;;;;21.17;11.23;;;12.20;99.90;;;;;;5102333;28;20039;-72
2023/04/29 07:03:47;;;;;;;22.05;11.05;;;12.00;99.90;;;;;;5103308;28;20032;-71
2023/04/29 07:06:12;;;;;;;22.40;11.20;;;11.90;99.90;;;;;;5103008;28;20445;-72
2023/04/29 07:08:38;;;;;;;20.98;10.32;;;12.00;99.90;;;;;;5102852;28;20122;-72
2023/04/29 07:11:04;;;;;;;22.73;9.57;;;12.10;99.90;;;;;;5103228;28;20036;-72
2023/04/29 07:13:29;;;;;;;16.42;8.52;;;12.00;99.90;;;;;;5103155;28;20111;-71
2023/04/29 07:15:55;;;;;;;16.02;8.93;;;12.00;99.90;;;;;;5103221;28;20036;-72
2023/04/29 07:18:21;;;;;;;18.90;9.07;;;12.20;99.90;;;;;;5103144;28;20330;-71
2023/04/29 07:20:47;;;;;;;18.08;8.55;;;12.30;99.90;;;;;;5102723;28;20044;-71
2023/04/29 07:23:13;;;;;;;15.68;8.35;;;12.40;99.90;;;;;;5102813;28;20321;-71
2023/04/29 07:25:39;;;;;;;18.08;8.85;;;12.20;99.90;;;;;;5101781;28;20051;-71
2023/04/29 07:28:05;;;;;;;17.38;8.82;;;12.20;99.90;;;;;;5102705;28;20437;-71
2023/04/29 07:30:31;;;;;;;17.33;8.13;;;12.20;99.90;;;;;;5103181;28;20039;-71
2023/04/29 07:32:57;;;;;;;21.30;9.77;;;12.50;99.90;;;;;;5102729;28;20051;-71
2023/04/29 07:35:23;;;;;;;23.65;9.88;;;12.60;99.90;;;;;;5103041;28;20368;-71
2023/04/29 07:37:49;;;;;;;17.38;8.75;;;12.80;99.90;;;;;;5100427;28;20348;-71
2023/04/29 07:40:14;;;;;;;22.05;9.15;;;12.90;99.90;;;;;;5099814;28;20051;-71
2023/04/29 07:42:40;;;;;;;21.55;9.10;;;12.80;99.90;;;;;;5099722;28;20061;-71
2023/04/29 07:45:06;;;;;;;15.27;8.05;;;12.80;99.90;;;;;;5115671;28;20391;-71
2023/04/29 07:47:32;;;;;;;18.90;8.10;;;12.70;99.90;;;;;;5099370;28;20380;-71
2023/04/29 07:49:57;;;;;;;14.68;7.07;;;12.70;99.90;;;;;;5099214;28;20040;-71
2023/04/29 07:52:23;;;;;;;17.58;7.07;;;12.80;99.90;;;;;;5099521;28;20067;-71
2023/04/29 07:54:49;;;;;;;16.75;7.97;;;13.00;99.90;;;;;;5099465;28;20356;-71
2023/04/29 07:57:15;;;;;;;19.40;7.00;;;13.00;99.90;;;;;;5099453;28;20360;-71
2023/04/29 07:59:40;;;;;;;15.82;6.63;;;13.10;99.90;;;;;;5099372;28;20040;-71
2023/04/29 08:02:06;;;;;;;15.02;6.55;;;13.20;99.90;;;;;;5099350;28;20136;-74
2023/04/29 08:04:32;;;;;;;12.88;6.45;;;13.20;99.90;;;;;;5098038;28;20428;-67
2023/04/29 08:06:58;;;;;;;17.92;6.32;;;13.40;99.90;;;;;;5098907;28;20086;-68
2023/04/29 08:09:23;;;;;;;11.15;5.63;;;13.40;99.90;;;;;;5099302;28;20035;-67
2023/04/29 08:11:49;;;;;;;16.88;6.15;;;13.40;99.90;;;;;;5098840;28;20127;-70
2023/04/29 08:14:15;;;;;;;11.05;5.93;;;13.50;99.90;;;;;;5099099;28;20039;-68
2023/04/29 08:16:40;;;;;;;11.93;5.82;;;13.70;99.90;;;;;;5099041;28;20039;-68
2023/04/29 08:19:06;;;;;;;15.98;6.55;;;13.80;99.90;;;;;;5098702;28;20043;-67
2023/04/29 08:21:33;;;;;;;15.05;6.47;;;13.90;99.90;;;;;;5098581;28;20064;-67
2023/04/29 08:23:59;;;;;;;12.80;6.45;;;13.90;99.90;;;;;;5098958;28;20047;-67
2023/04/29 08:26:25;;;;;;;12.65;5.53;;;13.70;99.90;;;;;;5098842;28;20086;-67
2023/04/29 08:28:51;;;;;;;13.68;5.95;;;13.60;99.90;;;;;;5098846;28;20084;-67
2023/04/29 08:31:18;;;;;;;13.75;6.40;;;13.90;99.90;;;;;;5098480;28;20043;-66
2023/04/29 08:33:44;;;;;;;11.32;6.40;;;14.10;99.90;;;;;;5097263;28;20135;-68
2023/04/29 08:36:09;;;;;;;9.38;5.45;;;14.20;99.90;;;;;;5098402;28;20116;-67
2023/04/29 08:38:35;;;;;;;13.30;5.82;;;14.40;99.90;;;;;;5098670;28;20086;-67
2023/04/29 08:41:01;;;;;;;13.95;6.43;;;14.60;99.90;;;;;;5098324;28;20101;-66
2023/04/29 08:43:27;;;;;;;12.75;6.20;;;14.50;99.90;;;;;;5098599;28;20039;-67
2023/04/29 08:45:54;;;;;;;12.50;6.10;;;14.60;99.90;;;;;;5080365;28;20079;-67
2023/04/29 08:48:20;;;;;;;15.57;7.82;;;14.30;99.90;;;;;;5097883;28;20043;-68
2023/04/29 08:50:46;;;;;;;11.23;6.35;;;14.20;99.90;;;;;;5097978;28;20040;-67
2023/04/29 08:53:13;;;;;;;13.77;6.13;;;14.40;99.90;;;;;;5097987;28;20066;-67
2023/04/29 08:55:44;;;;;;;13.02;6.78;;;14.30;99.90;;;;;;5098107;28;20082;-68
2023/04/29 08:58:11;;;;;;;17.33;7.18;;;14.30;99.90;;;;;;5098283;28;20051;-67
2023/04/29 09:00:38;;;;;;;13.50;6.57;;;14.10;99.90;;;;;;5098167;28;20044;-67
2023/04/29 09:03:16;;;;;;;13.93;6.30;;;14.10;99.90;;;;;;5098201;28;20044;-67
2023/04/29 09:05:44;;;;;;;14.82;6.50;;;14.10;99.90;;;;;;5098165;28;20044;-68
2023/04/29 09:08:11;;;;;;;13.07;6.63;;;14.40;99.90;;;;;;5097743;28;20427;-68
2023/04/29 09:10:41;;;;;;;13.73;5.88;;;14.40;99.90;;;;;;5098030;28;20036;-68
2023/04/29 09:13:07;;;;;;;12.60;6.03;;;14.20;99.90;;;;;;5098320;28;20028;-68
2023/04/29 09:15:40;;;;;;;12.32;5.93;;;14.30;99.90;;;;;;5096617;28;20456;-67
2023/04/29 09:18:06;;;;;;;11.55;5.82;;;14.50;99.90;;;;;;5097882;28;20044;-67
2023/04/29 09:20:32;;;;;;;10.23;5.72;;;14.60;99.90;;;;;;5096215;28;20122;-67
2023/04/29 09:23:00;;;;;;;8.05;5.22;;;14.80;99.90;;;;;;5096802;28;20051;-67
2023/04/29 09:25:26;;;;;;;12.95;5.60;;;14.80;99.90;;;;;;5097508;28;20044;-67
2023/04/29 09:27:53;;;;;;;9.88;4.80;;;14.60;99.90;;;;;;5097605;28;20117;-68
2023/04/29 09:30:20;;;;;;;10.02;4.72;;;14.70;99.90;;;;;;5097187;28;20028;-68
2023/04/29 09:33:02;;;;;;;11.02;4.55;;;14.60;99.90;;;;;;5097446;28;20059;-67
2023/04/29 09:35:28;;;;;;;11.48;5.28;;;14.80;99.90;;;;;;5097616;28;20032;-67
2023/04/29 09:38:10;;;;;;;10.63;4.57;;;14.90;99.90;;;;;;5097305;28;20413;-68
2023/04/29 09:40:36;;;;;;;15.07;4.65;;;15.10;99.90;;;;;;5113430;28;20367;-68
2023/04/29 09:43:02;;;;;;;14.98;4.65;;;15.60;99.90;;;;;;5096134;28;20078;-68
2023/04/29 09:45:40;;;;;;;9.15;4.80;;;15.50;99.90;;;;;;5097411;28;20364;-68
2023/04/29 09:48:08;;;;;;;11.20;4.85;;;15.60;99.90;;;;;;5097287;28;20048;-68
2023/04/29 09:50:38;;;;;;;9.38;4.65;;;15.80;99.90;;;;;;5096998;28;20039;-68
2023/04/29 09:53:08;;;;;;;15.80;4.80;;;16.00;99.90;;;;;;5098219;28;20313;-68
2023/04/29 09:55:58;;;;;;;13.15;4.90;;;15.90;99.90;;;;;;5097253;28;20078;-68
2023/04/29 09:58:39;;;;;;;11.82;5.95;;;15.90;99.90;;;;;;5096253;28;20052;-68
2023/04/29 10:01:05;;;;;;;10.52;4.88;;;15.80;99.90;;;;;;5096403;28;20051;-72
2023/04/29 10:03:36;;;;;;;9.65;4.80;;;15.80;99.90;;;;;;5097186;28;20051;-68
2023/04/29 10:06:04;;;;;;;10.73;5.10;;;15.80;99.90;;;;;;5080284;28;20059;-69
2023/04/29 10:08:31;;;;;;;9.57;4.82;;;15.90;99.90;;;;;;5097004;28;20153;-68
2023/04/29 10:11:02;;;;;;;10.55;4.80;;;15.90;99.90;;;;;;5097037;28;20119;-68
2023/04/29 10:13:28;;;;;;;12.07;5.18;;;16.30;99.90;;;;;;5097035;28;20035;-68
2023/04/29 10:16:14;;;;;;;7.70;4.25;;;16.40;99.90;;;;;;5096988;28;20028;-68
2023/04/29 10:18:42;;;;;;;10.68;4.40;;;16.10;99.90;;;;;;5096947;28;20072;-68
2023/04/29 10:21:08;;;;;;;8.02;4.00;;;16.10;99.90;;;;;;5096520;28;20089;-68
2023/04/29 10:23:35;;;;;;;12.77;4.68;;;15.90;99.90;;;;;;5096874;28;20115;-68
2023/04/29 10:26:02;;;;;;;9.77;4.47;;;15.90;99.90;;;;;;5096900;28;20066;-68
2023/04/29 10:28:31;;;;;;;14.15;5.35;;;16.40;99.90;;;;;;5096749;28;20044;-71
2023/04/29 10:31:01;;;;;;;9.57;5.10;;;16.50;99.90;;;;;;5096527;28;20426;-69
2023/04/29 10:33:30;;;;;;;11.00;4.70;;;16.60;99.90;;;;;;5096679;28;20352;-68
2023/04/29 10:35:55;;;;;;;13.63;5.28;;;16.50;99.90;;;;;;5096467;28;20333;-69
2023/04/29 10:38:33;;;;;;;11.63;5.25;;;16.40;99.90;;;;;;5096549;28;20051;-68
2023/04/29 10:41:07;;;;;;;12.75;5.28;;;16.50;99.90;;;;;;5096456;28;20437;-68
2023/04/29 10:43:32;;;;;;;13.55;6.30;;;16.70;99.90;;;;;;5095476;28;20421;-72
2023/04/29 10:46:17;;;;;;;10.50;4.88;;;16.90;99.90;;;;;;5096725;28;20090;-72
2023/04/29 10:48:43;;;;;;;9.60;4.97;;;16.00;99.90;;;;;;5096274;28;20452;-72
2023/04/29 10:51:09;;;;;;;9.35;5.18;;;15.60;99.90;;;;;;5096247;28;20036;-73
2023/04/29 10:53:35;;;;;;;10.77;5.00;;;15.30;99.90;;;;;;5096684;28;20040;-72
2023/04/29 10:56:07;;;;;;;10.98;3.88;;;15.20;99.90;;;;;;5096126;28;20122;-77
2023/04/29 10:58:34;;;;;;;9.43;4.70;;;15.40;99.90;;;;;;5097325;28;20044;-77
2023/04/29 11:01:00;;;;;;;9.63;4.20;;;15.60;99.90;;;;;;5095752;28;20066;-68
2023/04/29 11:03:46;;;;;;;18.05;5.15;;;15.60;99.90;;;;;;5096526;28;20040;-66
2023/04/29 11:06:11;;;;;;;9.27;3.07;;;16.20;99.90;;;;;;5096532;28;20098;-67
2023/04/29 11:08:41;;;;;;;10.20;4.07;;;16.80;99.90;;;;;;5096412;28;20040;-74
2023/04/29 11:11:07;;;;;;;7.70;3.35;;;16.90;99.90;;;;;;5096959;28;20102;-74
2023/04/29 11:13:38;;;;;;;7.47;2.40;;;16.80;99.90;;;;;;5100316;28;20360;-67
2023/04/29 11:16:05;;;;;;;6.30;2.13;;;16.80;99.90;;;;;;5100292;28;20040;-68
2023/04/29 11:18:31;;;;;;;4.22;1.75;;;17.00;99.90;;;;;;5098998;28;20118;-66
2023/04/29 11:21:06;;;;;;;4.80;2.03;;;17.40;99.90;;;;;;5099902;28;20040;-78
2023/04/29 11:23:41;;;;;;;6.38;1.98;;;17.50;99.90;;;;;;5116274;28;20055;-70
2023/04/29 11:26:07;;;;;;;4.70;1.88;;;17.10;99.90;;;;;;5081894;28;20044;-72
2023/04/29 11:28:33;;;;;;;3.83;1.73;;;17.50;99.90;;;;;;5100062;28;20372;-73
2023/04/29 11:30:59;;;;;;;5.05;1.98;;;17.30;99.90;;;;;;5100025;28;20032;-74
2023/04/29 11:33:26;;;;;;;3.33;1.45;;;17.20;99.90;;;;;;5099756;28;20048;-74
2023/04/29 11:35:55;;;;;;;5.28;2.00;;;17.10;99.90;;;;;;5099641;28;20087;-75
2023/04/29 11:38:29;;;;;;;3.53;1.55;;;17.00;99.90;;;;;;5099878;28;20127;-75
2023/04/29 11:40:55;;;;;;;5.20;1.17;;;17.20;99.90;;;;;;5100229;28;20118;-75
2023/04/29 11:43:22;;;;;;;4.57;1.30;;;17.30;99.90;;;;;;5099513;28;20047;-73
2023/04/29 11:45:48;;;;;;;5.13;1.40;;;17.40;99.90;;;;;;5099894;28;20123;-72
2023/04/29 11:48:22;;;;;;;2.78;1.30;;;18.20;99.90;;;;;;5099813;28;20127;-74
2023/04/29 11:50:53;;;;;;;4.05;1.40;;;18.20;99.90;;;;;;5099310;28;20078;-73
2023/04/29 11:53:21;;;;;;;5.80;1.80;;;18.40;99.90;;;;;;5099314;28;20113;-73
2023/04/29 11:55:47;;;;;;;4.13;1.88;;;18.50;99.90;;;;;;5098622;28;20036;-73
2023/04/29 11:58:15;;;;;;;4.38;2.22;;;19.00;99.90;;;;;;5099175;28;20036;-72
2023/04/29 12:00:41;;;;;;;6.55;2.17;;;19.30;99.90;;;;;;5099153;28;20047;-73
2023/04/29 12:03:14;;;;;;;7.55;1.60;;;19.30;99.90;;;;;;5099099;28;20044;-73
2023/04/29 12:06:03;;;;;;;5.00;2.13;;;19.60;99.90;;;;;;5099121;28;20547;-73
2023/04/29 12:08:29;;;;;;;3.25;1.48;;;19.60;99.90;;;;;;5099357;28;20087;-73
2023/04/29 12:10:59;;;;;;;2.10;1.63;;;19.40;99.90;;;;;;5098967;28;20488;-73
2023/04/29 12:13:28;;;;;;;3.42;1.35;;;19.00;99.90;;;;;;5099012;28;20104;-75
2023/04/29 12:15:55;;;;;;;4.32;1.70;;;19.00;99.90;;;;;;5099315;28;20039;-73
2023/04/29 12:18:22;;;;;;;2.90;1.75;;;19.00;99.90;;;;;;5097878;28;20121;-72
2023/04/29 12:20:52;;;;;;;5.97;2.72;;;19.30;99.90;;;;;;5097351;28;20051;-70
2023/04/29 12:23:28;;;;;;;5.95;2.50;;;19.70;99.90;;;;;;5098107;28;20043;-69
2023/04/29 12:25:56;;;;;;;3.97;1.92;;;20.00;99.90;;;;;;5099041;28;20367;-72
2023/04/29 12:28:23;;;;;;;3.20;1.60;;;19.40;99.90;;;;;;5098846;28;20128;-70
2023/04/29 12:30:50;;;;;;;5.97;1.60;;;19.30;99.90;;;;;;5098824;28;20043;-70
2023/04/29 12:33:25;;;;;;;5.22;1.92;;;19.70;99.90;;;;;;5098301;28;20048;-70
2023/04/29 12:35:56;;;;;;;3.97;1.30;;;19.70;99.90;;;;;;5098726;28;20055;-70